Terminal Aerodrome Forecast
Issued by NWS Wilmington, OH

Current Version | Previous Version | Graphics & Text | Print | Product List | Glossary On
Versions: 1 2 3 4 5 6 7 8 9 10 11 12 13 14 15 16 17 18 19 20 21 22 23 24 25 26 27 28 29
000
FTUS41 KILN 181100
TAFILN
TAF
KILN 181130Z 1812/1912 VRB03KT P6SM SCT250
     FM181500 04005KT P6SM FEW050 SCT250
     FM182300 07010KT P6SM SCT250
     FM191000 09012KT P6SM FEW050 BKN120=

USA.gov is the U.S. government's official web portal to all federal, state and local government web resources and services.